createdAt,value
2018-01-15T00:01:48.889Z,1.50
2018-01-15T00:04:16.373Z,1.40
2018-01-15T00:06:43.850Z,1.40
2018-01-15T00:09:11.338Z,1.40
2018-01-15T00:11:39.567Z,1.40
2018-01-15T00:14:07.062Z,1.40
2018-01-15T00:16:34.521Z,1.40
2018-01-15T00:19:02.757Z,1.40
2018-01-15T00:21:30.246Z,1.40
2018-01-15T00:23:57.729Z,1.40
2018-01-15T00:26:25.213Z,1.50
2018-01-15T00:28:52.689Z,1.50
2018-01-15T00:31:20.161Z,1.50
2018-01-15T00:33:47.630Z,1.60
2018-01-15T00:36:15.106Z,1.60
2018-01-15T00:38:43.358Z,1.60
2018-01-15T00:41:10.838Z,1.50
2018-01-15T00:43:39.085Z,1.60
2018-01-15T00:46:06.574Z,1.60
2018-01-15T00:48:34.046Z,1.70
2018-01-15T00:51:01.506Z,1.70
2018-01-15T00:53:28.982Z,1.70
2018-01-15T00:55:56.477Z,1.70
2018-01-15T00:58:23.941Z,1.60
2018-01-15T01:00:51.421Z,1.60
2018-01-15T01:03:18.913Z,1.60
2018-01-15T01:05:46.398Z,1.60
2018-01-15T01:08:13.875Z,1.70
2018-01-15T01:10:42.190Z,1.70
2018-01-15T01:13:09.660Z,1.70
2018-01-15T01:15:37.137Z,1.70
2018-01-15T01:18:04.593Z,1.60
2018-01-15T01:20:32.089Z,1.70
2018-01-15T01:22:59.559Z,1.80
2018-01-15T01:25:27.046Z,1.70
2018-01-15T01:27:54.513Z,1.70
2018-01-15T01:30:21.994Z,1.80
2018-01-15T01:32:49.458Z,1.90
2018-01-15T01:35:17.697Z,2.00
2018-01-15T01:37:45.165Z,2.00
2018-01-15T01:40:12.647Z,2.10
2018-01-15T01:42:40.877Z,2.10
2018-01-15T01:45:08.354Z,2.10
2018-01-15T01:47:35.814Z,2.10
2018-01-15T01:50:03.294Z,2.10
2018-01-15T01:52:31.573Z,2.20
2018-01-15T01:54:59.017Z,2.10
2018-01-15T01:57:27.250Z,2.20
2018-01-15T01:59:54.737Z,2.20
2018-01-15T02:02:22.197Z,2.20
2018-01-15T02:04:50.819Z,2.30
2018-01-15T02:07:18.270Z,2.30
2018-01-15T02:09:45.758Z,2.30
2018-01-15T02:12:13.218Z,2.30
2018-01-15T02:14:40.681Z,2.30
2018-01-15T02:17:08.162Z,2.30
2018-01-15T02:19:35.638Z,2.30
2018-01-15T02:22:03.865Z,2.40
2018-01-15T02:24:31.326Z,2.30
2018-01-15T02:26:58.805Z,2.40
2018-01-15T02:29:26.282Z,2.40
2018-01-15T02:31:54.527Z,2.40
2018-01-15T02:34:21.996Z,2.40
2018-01-15T02:36:49.490Z,2.40
2018-01-15T02:39:17.063Z,2.40
2018-01-15T02:41:44.526Z,2.50
2018-01-15T02:44:12.002Z,2.40
2018-01-15T02:46:39.478Z,2.40
2018-01-15T02:49:06.941Z,2.50
2018-01-15T02:51:34.413Z,2.40
2018-01-15T02:54:02.638Z,2.40
2018-01-15T02:56:30.111Z,2.40
2018-01-15T02:58:57.574Z,2.50
2018-01-15T03:01:25.057Z,2.50
2018-01-15T03:03:53.280Z,2.50
2018-01-15T03:06:20.736Z,2.50
2018-01-15T03:08:48.221Z,2.50
2018-01-15T03:11:15.698Z,2.50
2018-01-15T03:13:43.946Z,2.60
2018-01-15T03:16:11.410Z,2.60
2018-01-15T03:18:38.881Z,2.60
2018-01-15T03:21:07.117Z,2.60
2018-01-15T03:23:34.609Z,2.60
2018-01-15T03:26:02.845Z,2.60
2018-01-15T03:28:30.322Z,2.60
2018-01-15T03:30:57.802Z,2.60
2018-01-15T03:33:26.046Z,2.60
2018-01-15T03:35:53.525Z,2.60
2018-01-15T03:38:20.985Z,2.70
2018-01-15T03:40:49.318Z,2.70
2018-01-15T03:43:16.793Z,2.70
2018-01-15T03:45:45.039Z,2.70
2018-01-15T03:48:12.506Z,2.70
2018-01-15T03:50:39.976Z,2.70
2018-01-15T03:53:07.457Z,2.70
2018-01-15T03:55:34.918Z,2.70
2018-01-15T03:58:03.169Z,2.70
2018-01-15T04:00:30.639Z,2.70
2018-01-15T04:02:58.100Z,2.80
2018-01-15T04:05:25.578Z,2.80
2018-01-15T04:07:53.804Z,2.80
2018-01-15T04:10:21.266Z,2.80
2018-01-15T04:12:48.745Z,2.80
2018-01-15T04:15:16.210Z,2.90
2018-01-15T04:17:44.454Z,2.90
2018-01-15T04:20:11.947Z,2.90
2018-01-15T04:22:39.401Z,2.90
2018-01-15T04:25:07.621Z,3.00
2018-01-15T04:27:35.103Z,2.90
2018-01-15T04:30:02.561Z,3.00
2018-01-15T04:32:30.038Z,3.00
2018-01-15T04:34:58.302Z,3.10
2018-01-15T04:37:26.549Z,3.10
2018-01-15T04:39:54.301Z,3.10
2018-01-15T04:42:21.765Z,3.10
2018-01-15T04:44:49.258Z,3.20
2018-01-15T04:47:16.722Z,3.20
2018-01-15T04:49:44.957Z,3.10
2018-01-15T04:52:12.423Z,3.10
2018-01-15T04:54:39.895Z,3.10
2018-01-15T04:57:07.372Z,3.10
2018-01-15T04:59:35.607Z,3.20
2018-01-15T05:02:03.069Z,3.10
2018-01-15T05:04:30.559Z,3.20
2018-01-15T05:06:58.799Z,3.20
2018-01-15T05:09:26.253Z,3.20
2018-01-15T05:11:53.741Z,3.30
2018-01-15T05:14:21.970Z,3.30
2018-01-15T05:16:49.446Z,3.30
2018-01-15T05:19:16.909Z,3.30
2018-01-15T05:21:44.473Z,3.40
2018-01-15T05:24:11.941Z,3.40
2018-01-15T05:26:39.394Z,3.40
2018-01-15T05:29:06.870Z,3.40
2018-01-15T05:31:35.114Z,3.50
2018-01-15T05:34:03.333Z,3.50
2018-01-15T05:36:30.801Z,3.50
2018-01-15T05:38:58.270Z,3.50
2018-01-15T05:41:25.758Z,3.50
2018-01-15T05:43:53.248Z,3.50
2018-01-15T05:46:21.462Z,3.50
2018-01-15T05:48:48.938Z,3.60
2018-01-15T05:51:16.402Z,3.60
2018-01-15T05:53:44.642Z,3.50
2018-01-15T05:56:12.109Z,3.50
2018-01-15T05:58:39.593Z,3.50
2018-01-15T06:01:07.061Z,3.50
2018-01-15T06:03:35.317Z,3.50
2018-01-15T06:06:02.783Z,3.50
2018-01-15T06:08:30.258Z,3.40
2018-01-15T06:10:58.492Z,3.20
2018-01-15T06:13:25.974Z,3.30
2018-01-15T06:15:53.433Z,3.20
2018-01-15T06:18:20.897Z,3.20
2018-01-15T06:20:49.158Z,3.10
2018-01-15T06:23:16.623Z,3.10
2018-01-15T06:25:44.878Z,2.90
2018-01-15T06:28:12.330Z,2.90
2018-01-15T06:30:39.806Z,2.90
2018-01-15T06:33:07.271Z,2.80
2018-01-15T06:35:35.523Z,2.60
2018-01-15T06:38:03.013Z,2.60
2018-01-15T06:40:31.249Z,2.50
2018-01-15T06:42:58.726Z,2.50
2018-01-15T06:45:26.999Z,2.40
2018-01-15T06:47:54.482Z,2.40
2018-01-15T06:50:22.705Z,2.40
2018-01-15T06:52:50.186Z,2.40
2018-01-15T06:55:18.413Z,2.30
2018-01-15T06:57:45.873Z,2.30
2018-01-15T07:00:13.360Z,2.30
2018-01-15T07:02:40.834Z,2.30
2018-01-15T07:05:08.289Z,2.30
2018-01-15T07:07:35.750Z,2.30
2018-01-15T07:10:03.269Z,2.30
2018-01-15T07:12:30.727Z,2.20
2018-01-15T07:14:58.212Z,2.20
2018-01-15T07:17:25.658Z,2.20
2018-01-15T07:19:53.145Z,2.20
2018-01-15T07:22:21.464Z,2.20
2018-01-15T07:24:48.965Z,2.20
2018-01-15T07:27:17.194Z,2.30
2018-01-15T07:29:44.671Z,2.20
2018-01-15T07:32:12.137Z,2.30
2018-01-15T07:34:39.617Z,2.20
2018-01-15T07:37:07.867Z,2.30
2018-01-15T07:39:35.332Z,2.30
2018-01-15T07:42:02.813Z,2.30
2018-01-15T07:44:31.047Z,2.40
2018-01-15T07:46:58.530Z,2.40
2018-01-15T07:49:25.989Z,2.40
2018-01-15T07:51:55.073Z,2.50
2018-01-15T07:54:22.525Z,2.50
2018-01-15T07:56:50.777Z,2.70
2018-01-15T07:59:18.258Z,2.70
2018-01-15T08:01:45.722Z,2.80
2018-01-15T08:04:13.195Z,2.60
2018-01-15T08:06:41.422Z,2.40
2018-01-15T08:09:08.893Z,2.40
2018-01-15T08:11:37.865Z,2.50
2018-01-15T08:14:05.378Z,2.40
2018-01-15T08:16:33.595Z,2.50
2018-01-15T08:19:01.057Z,2.40
2018-01-15T08:21:28.549Z,2.50
2018-01-15T08:23:57.523Z,2.50
2018-01-15T08:26:25.010Z,2.60
2018-01-15T08:28:53.241Z,2.60
2018-01-15T08:31:20.730Z,2.60
2018-01-15T08:33:48.962Z,2.70
2018-01-15T08:36:16.426Z,2.70
2018-01-15T08:38:43.898Z,2.70
2018-01-15T08:41:11.390Z,2.80
2018-01-15T08:43:39.629Z,2.90
2018-01-15T08:46:07.103Z,2.90
2018-01-15T08:48:34.581Z,3.00
2018-01-15T08:51:02.798Z,3.20
2018-01-15T08:53:30.276Z,3.20
2018-01-15T08:55:57.740Z,3.20
2018-01-15T08:58:25.201Z,3.30
2018-01-15T09:00:52.691Z,3.30
2018-01-15T09:03:20.178Z,3.40
2018-01-15T09:05:47.651Z,3.40
2018-01-15T09:08:15.128Z,3.50
2018-01-15T09:10:43.378Z,3.60
2018-01-15T09:13:10.837Z,3.50
2018-01-15T09:15:38.313Z,3.60
2018-01-15T09:18:05.774Z,3.70
2018-01-15T09:20:33.273Z,3.80
2018-01-15T09:23:00.726Z,3.90
2018-01-15T09:25:28.208Z,4.00
2018-01-15T09:27:55.693Z,4.10
2018-01-15T09:30:23.139Z,4.20
2018-01-15T09:32:50.614Z,4.30
2018-01-15T09:35:18.082Z,4.40
2018-01-15T09:37:46.330Z,5.30
2018-01-15T09:40:13.803Z,5.30
2018-01-15T09:42:42.053Z,5.70
2018-01-15T09:45:09.517Z,5.70
2018-01-15T09:47:36.985Z,5.80
2018-01-15T09:50:04.473Z,5.50
2018-01-15T09:52:31.931Z,5.40
2018-01-15T09:55:00.240Z,5.40
2018-01-15T09:57:27.709Z,5.30
2018-01-15T09:59:55.185Z,5.20
2018-01-15T10:02:22.762Z,5.10
2018-01-15T10:04:50.241Z,5.10
2018-01-15T10:07:17.726Z,5.10
2018-01-15T10:09:45.198Z,5.00
2018-01-15T10:12:12.662Z,5.00
2018-01-15T10:14:40.141Z,5.00
2018-01-15T10:17:08.385Z,5.00
2018-01-15T10:19:35.850Z,5.00
2018-01-15T10:22:03.345Z,5.10
2018-01-15T10:24:31.577Z,5.10
2018-01-15T10:26:59.042Z,5.10
2018-01-15T10:29:26.523Z,5.20
2018-01-15T10:31:54.770Z,5.30
2018-01-15T10:34:22.237Z,5.30
2018-01-15T10:36:49.714Z,5.40
2018-01-15T10:39:17.953Z,5.60
2018-01-15T10:41:45.422Z,5.60
2018-01-15T10:44:12.936Z,5.70
2018-01-15T10:46:40.390Z,5.80
2018-01-15T10:49:07.873Z,6.00
2018-01-15T10:51:35.338Z,6.30
2018-01-15T10:54:02.813Z,6.50
2018-01-15T10:56:30.282Z,6.80
2018-01-15T10:58:58.493Z,7.10
2018-01-15T11:01:27.757Z,7.10
2018-01-15T11:03:55.980Z,7.30
2018-01-15T11:06:23.450Z,7.30
2018-01-15T11:08:50.909Z,7.40
2018-01-15T11:11:18.357Z,7.40
2018-01-15T11:13:45.830Z,7.50
2018-01-15T11:16:13.304Z,7.50
2018-01-15T11:18:41.538Z,7.70
2018-01-15T11:21:09.006Z,7.70
2018-01-15T11:23:36.458Z,7.60
2018-01-15T11:26:03.938Z,7.70
2018-01-15T11:28:31.393Z,7.70
2018-01-15T11:31:00.353Z,7.70
2018-01-15T11:33:27.821Z,7.70
2018-01-15T11:35:55.273Z,7.70
2018-01-15T11:38:22.754Z,7.70
2018-01-15T11:40:50.204Z,7.70
2018-01-15T11:43:17.677Z,7.60
2018-01-15T11:45:45.897Z,7.60
2018-01-15T11:48:13.379Z,7.60
2018-01-15T11:50:40.829Z,7.60
2018-01-15T11:53:08.318Z,7.60
2018-01-15T11:55:35.784Z,7.60
2018-01-15T11:58:03.996Z,7.50
2018-01-15T12:00:31.473Z,7.50
2018-01-15T12:02:58.922Z,7.50
2018-01-15T12:05:26.401Z,7.60
2018-01-15T12:07:53.861Z,7.50
2018-01-15T12:10:21.318Z,7.50
2018-01-15T12:12:48.910Z,7.60
2018-01-15T12:15:17.122Z,7.60
2018-01-15T12:17:44.591Z,7.50
2018-01-15T12:20:12.078Z,7.60
2018-01-15T12:22:40.327Z,7.60
2018-01-15T12:25:07.783Z,7.60
2018-01-15T12:27:35.252Z,7.60
2018-01-15T12:30:02.713Z,7.70
2018-01-15T12:32:30.171Z,7.70
2018-01-15T12:34:57.646Z,7.70
2018-01-15T12:37:25.895Z,7.70
2018-01-15T12:39:53.364Z,7.70
2018-01-15T12:42:20.814Z,7.70
2018-01-15T12:44:49.795Z,7.70
2018-01-15T12:47:17.245Z,7.70
2018-01-15T12:49:44.718Z,7.70
2018-01-15T12:52:12.948Z,7.70
2018-01-15T12:54:40.435Z,7.70
2018-01-15T12:57:07.877Z,7.70
2018-01-15T12:59:35.345Z,7.70
2018-01-15T13:02:02.810Z,7.70
2018-01-15T13:04:30.257Z,7.70
2018-01-15T13:06:57.769Z,7.70
2018-01-15T13:09:25.221Z,7.60
2018-01-15T13:11:52.695Z,7.60
2018-01-15T13:14:20.157Z,7.50
2018-01-15T13:16:48.542Z,7.40
2018-01-15T13:19:16.006Z,7.30
2018-01-15T13:21:43.470Z,7.20
2018-01-15T13:24:10.949Z,7.20
2018-01-15T13:26:39.276Z,7.00
2018-01-15T13:29:06.746Z,7.00
2018-01-15T13:31:34.206Z,7.00
2018-01-15T13:34:01.669Z,6.90
2018-01-15T13:36:29.153Z,6.90
2018-01-15T13:38:56.621Z,6.90
2018-01-15T13:41:24.074Z,7.00
2018-01-15T13:43:52.312Z,7.20
2018-01-15T13:46:19.794Z,7.20
2018-01-15T13:48:47.241Z,7.20
2018-01-15T13:51:14.719Z,7.30
2018-01-15T13:53:42.942Z,7.30
2018-01-15T13:56:10.404Z,7.30
2018-01-15T13:58:37.881Z,7.40
2018-01-15T14:01:05.341Z,7.40
2018-01-15T14:03:32.802Z,7.40
2018-01-15T14:06:00.266Z,7.40
2018-01-15T14:08:29.251Z,7.40
2018-01-15T14:10:56.727Z,7.40
2018-01-15T14:13:24.962Z,7.50
2018-01-15T14:15:52.435Z,7.40
2018-01-15T14:18:19.881Z,7.40
2018-01-15T14:20:47.357Z,7.40
2018-01-15T14:23:14.809Z,7.40
2018-01-15T14:25:42.274Z,7.50
2018-01-15T14:28:10.497Z,7.50
2018-01-15T14:30:37.958Z,7.50
2018-01-15T14:33:05.429Z,7.50
2018-01-15T14:35:32.894Z,7.50
2018-01-15T14:38:00.432Z,7.40
2018-01-15T14:40:27.822Z,7.40
2018-01-15T14:42:55.296Z,7.40
2018-01-15T14:45:23.554Z,7.40
2018-01-15T14:47:51.035Z,7.40
2018-01-15T14:50:19.270Z,7.40
2018-01-15T14:52:46.742Z,7.40
2018-01-15T14:55:14.214Z,7.40
2018-01-15T14:57:42.453Z,7.30
2018-01-15T15:00:09.931Z,7.30
2018-01-15T15:02:38.885Z,7.10
2018-01-15T15:05:06.370Z,7.10
2018-01-15T15:07:33.855Z,7.10
2018-01-15T15:10:02.076Z,7.00
2018-01-15T15:12:29.534Z,7.00
2018-01-15T15:14:57.019Z,7.00
2018-01-15T15:17:24.485Z,6.90
2018-01-15T15:19:52.713Z,6.90
2018-01-15T15:22:21.401Z,6.90
2018-01-15T15:24:49.681Z,6.90
2018-01-15T15:27:18.593Z,6.90
2018-01-15T15:29:47.106Z,7.00
2018-01-15T15:32:14.555Z,7.00
2018-01-15T15:34:42.785Z,7.10
2018-01-15T15:37:10.970Z,7.10
2018-01-15T15:39:38.428Z,7.10
2018-01-15T15:42:05.901Z,7.20
2018-01-15T15:44:34.130Z,7.20
2018-01-15T15:47:01.598Z,7.30
2018-01-15T15:49:29.587Z,7.30
2018-01-15T15:51:57.577Z,7.30
2018-01-15T15:54:25.914Z,7.30
2018-01-15T15:56:53.371Z,7.30
2018-01-15T15:59:20.841Z,7.30
2018-01-15T16:01:48.310Z,7.40
2018-01-15T16:04:15.770Z,7.40
2018-01-15T16:06:43.233Z,7.40
2018-01-15T16:09:10.714Z,7.40
2018-01-15T16:11:38.961Z,7.30
2018-01-15T16:14:06.831Z,7.40
2018-01-15T16:16:34.281Z,7.30
2018-01-15T16:19:02.527Z,7.10
2018-01-15T16:21:35.796Z,7.10
2018-01-15T16:24:03.364Z,6.90
2018-01-15T16:26:30.869Z,6.90
2018-01-15T16:28:58.329Z,6.70
2018-01-15T16:31:25.787Z,6.70
2018-01-15T16:33:54.027Z,6.50
2018-01-15T16:36:21.514Z,6.40
2018-01-15T16:38:48.977Z,6.40
2018-01-15T16:41:17.200Z,6.30
2018-01-15T16:43:44.657Z,6.30
2018-01-15T16:46:12.126Z,6.20
2018-01-15T16:48:39.589Z,6.20
2018-01-15T16:51:07.074Z,6.30
2018-01-15T16:53:35.297Z,6.20
2018-01-15T16:56:02.809Z,6.20
2018-01-15T16:58:30.262Z,6.30
2018-01-15T17:00:57.742Z,6.20
2018-01-15T17:03:26.015Z,6.20
2018-01-15T17:05:55.031Z,6.20
2018-01-15T17:08:22.475Z,6.20
2018-01-15T17:10:49.926Z,6.30
2018-01-15T17:13:17.408Z,6.20
2018-01-15T17:15:44.860Z,6.20
2018-01-15T17:18:12.334Z,6.20
2018-01-15T17:20:39.795Z,6.20
2018-01-15T17:23:07.274Z,6.20
2018-01-15T17:25:34.893Z,6.20
2018-01-15T17:28:02.345Z,6.10
2018-01-15T17:30:29.817Z,6.10
2018-01-15T17:32:57.282Z,6.10
2018-01-15T17:35:24.784Z,6.10
2018-01-15T17:37:53.006Z,6.00
2018-01-15T17:40:20.475Z,6.00
2018-01-15T17:42:47.935Z,6.00
2018-01-15T17:45:15.405Z,6.00
2018-01-15T17:47:44.373Z,5.90
2018-01-15T17:50:11.850Z,5.90
2018-01-15T17:52:39.310Z,5.90
2018-01-15T17:55:06.779Z,5.90
2018-01-15T17:57:35.003Z,6.00
2018-01-15T18:00:02.485Z,6.00
2018-01-15T18:02:29.954Z,6.00
2018-01-15T18:04:57.418Z,6.00
2018-01-15T18:07:25.665Z,6.10
2018-01-15T18:09:53.126Z,6.00
2018-01-15T18:12:20.593Z,6.00
2018-01-15T18:14:48.078Z,6.00
2018-01-15T18:17:16.382Z,6.10
2018-01-15T18:19:43.838Z,6.00
2018-01-15T18:22:11.306Z,6.20
2018-01-15T18:24:38.761Z,6.20
2018-01-15T18:27:06.218Z,6.30
2018-01-15T18:29:33.691Z,6.30
2018-01-15T18:32:01.279Z,6.30
2018-01-15T18:34:28.733Z,6.50
2018-01-15T18:36:56.206Z,6.40
2018-01-15T18:39:23.700Z,6.50
2018-01-15T18:41:51.173Z,6.50
2018-01-15T18:44:18.623Z,6.50
2018-01-15T18:46:46.163Z,6.50
2018-01-15T18:49:13.641Z,6.50
2018-01-15T18:51:41.107Z,6.50
2018-01-15T18:54:08.587Z,6.60
2018-01-15T18:56:36.042Z,6.60
2018-01-15T18:59:04.506Z,6.70
2018-01-15T19:01:31.966Z,6.60
2018-01-15T19:03:59.462Z,6.60
2018-01-15T19:06:27.689Z,6.50
2018-01-15T19:08:55.178Z,6.50
2018-01-15T19:11:23.420Z,6.60
2018-01-15T19:13:50.945Z,6.60
2018-01-15T19:16:18.403Z,6.70
2018-01-15T19:18:46.642Z,6.70
2018-01-15T19:21:14.874Z,6.60
2018-01-15T19:23:42.323Z,6.60
2018-01-15T19:26:09.811Z,6.60
2018-01-15T19:28:37.269Z,6.60
2018-01-15T19:31:04.750Z,6.70
2018-01-15T19:33:33.001Z,6.70
2018-01-15T19:39:10.990Z,6.80
2018-01-15T19:41:39.318Z,6.80
2018-01-15T19:44:25.510Z,6.90
2018-01-15T19:46:59.357Z,6.80
2018-01-15T19:49:32.394Z,6.80
2018-01-15T19:52:05.569Z,6.80
2018-01-15T19:54:38.822Z,6.70
2018-01-15T19:57:12.085Z,6.70
2018-01-15T19:59:45.942Z,6.90
2018-01-15T20:02:19.020Z,6.90
2018-01-15T20:04:52.227Z,6.90
2018-01-15T20:07:25.394Z,6.90
2018-01-15T20:09:58.622Z,7.00
2018-01-15T20:12:26.086Z,7.00
2018-01-15T20:14:53.554Z,7.00
2018-01-15T20:17:21.037Z,7.10
2018-01-15T20:19:48.526Z,7.10
2018-01-15T20:22:16.001Z,7.00
2018-01-15T20:24:43.477Z,7.00
2018-01-15T20:27:11.719Z,6.80
2018-01-15T20:29:39.230Z,6.80
2018-01-15T20:32:07.492Z,6.60
2018-01-15T20:34:34.985Z,6.60
2018-01-15T20:37:02.543Z,6.60
2018-01-15T20:39:30.003Z,6.50
2018-01-15T20:41:57.465Z,6.50
2018-01-15T20:44:24.942Z,6.50
2018-01-15T20:46:52.413Z,6.50
2018-01-15T20:49:19.877Z,6.60
2018-01-15T20:51:47.383Z,6.60
2018-01-15T20:54:14.834Z,6.70
2018-01-15T20:56:43.454Z,6.70
2018-01-15T20:59:10.905Z,6.80
2018-01-15T21:01:38.397Z,6.90
2018-01-15T21:04:06.631Z,6.90
2018-01-15T21:06:34.082Z,6.90
2018-01-15T21:09:01.558Z,7.00
2018-01-15T21:11:29.029Z,7.00
2018-01-15T21:13:58.006Z,7.10
2018-01-15T21:16:25.474Z,7.10
2018-01-15T21:18:52.938Z,7.10
2018-01-15T21:21:20.394Z,7.10
2018-01-15T21:23:47.897Z,7.10
2018-01-15T21:26:15.366Z,7.10
2018-01-15T21:28:42.817Z,7.20
2018-01-15T21:31:10.265Z,7.20
2018-01-15T21:33:37.733Z,7.20
2018-01-15T21:36:05.205Z,7.20
2018-01-15T21:38:32.670Z,7.20
2018-01-15T21:41:00.145Z,7.20
2018-01-15T21:43:27.601Z,7.20
2018-01-15T21:45:55.822Z,7.20
2018-01-15T21:48:23.305Z,7.20
2018-01-15T21:50:50.785Z,7.20
2018-01-15T21:53:19.766Z,7.10
2018-01-15T21:55:47.236Z,7.10
2018-01-15T21:58:14.698Z,7.10
2018-01-15T22:00:42.918Z,7.10
2018-01-15T22:03:10.377Z,7.10
2018-01-15T22:05:37.873Z,7.10
2018-01-15T22:08:05.337Z,7.00
2018-01-15T22:10:32.814Z,7.00
2018-01-15T22:13:01.030Z,7.00
2018-01-15T22:15:28.497Z,7.00
2018-01-15T22:17:55.958Z,6.90
2018-01-15T22:20:23.426Z,6.90
2018-01-15T22:22:50.941Z,6.80
2018-01-15T22:25:18.410Z,6.80
2018-01-15T22:27:45.862Z,6.80
2018-01-15T22:30:13.314Z,6.70
2018-01-15T22:32:40.781Z,6.80
2018-01-15T22:35:08.257Z,6.80
2018-01-15T22:37:35.731Z,6.70
2018-01-15T22:40:04.773Z,6.60
2018-01-15T22:42:32.226Z,6.60
2018-01-15T22:44:59.702Z,6.60
2018-01-15T22:47:27.171Z,6.60
2018-01-15T22:49:54.642Z,6.50
2018-01-15T22:52:22.115Z,6.50
2018-01-15T22:54:50.345Z,6.60
2018-01-15T22:57:17.798Z,6.60
2018-01-15T22:59:45.278Z,6.50
2018-01-15T23:02:12.754Z,6.50
2018-01-15T23:04:40.224Z,6.50
2018-01-15T23:07:08.446Z,6.50
2018-01-15T23:09:35.897Z,6.50
2018-01-15T23:12:03.361Z,6.60
2018-01-15T23:14:30.813Z,6.60
2018-01-15T23:16:58.265Z,6.60
2018-01-15T23:19:25.746Z,6.60
2018-01-15T23:21:53.210Z,6.70
2018-01-15T23:24:20.669Z,6.70
2018-01-15T23:26:48.118Z,6.70
2018-01-15T23:29:15.690Z,6.60
2018-01-15T23:31:43.141Z,6.70
2018-01-15T23:34:10.610Z,6.60
2018-01-15T23:36:38.833Z,6.50
2018-01-15T23:39:06.310Z,6.50
2018-01-15T23:41:33.769Z,6.50
2018-01-15T23:44:01.230Z,6.40
2018-01-15T23:46:28.698Z,6.40
2018-01-15T23:48:56.149Z,6.40
2018-01-15T23:51:23.633Z,6.40
2018-01-15T23:53:51.863Z,6.30
2018-01-15T23:56:19.350Z,6.30
2018-01-15T23:58:47.585Z,6.40
